メインページ
METAR-TAF:

METAR-TAF

空港 :

ドバイ国際空港

ドバイ, アラブ首長国連邦

緯度: 25-15-10N, 経度: 055-21-52E, 海抜: 8m

現時点の気象観測

当レポートは39分前の23:00(UTC)に作成
の風 7kt、東/南東から南西の間で変化する
気温 33°C
湿度 59%
気圧 993 hPa
視程10km以上
1,500メートル以下は雲なし、積乱雲なし

METAR: OMDB 162300Z 19007KT 110V220 CAVOK 33/24 Q0993 NOSIG

時間: 03:39 (23:39 UTC)

予報

当レポートは6時間47分前の16:52(UTC)に作成
予報は16日の 18時(UTC)から 18日の 00時(UTC)まで有効
南/南西の風 8kt
視程: 8000m
17日の 06時(UTC)から 17日の 08時(UTC)まで徐々に
西の風 13kt
17日の 17時(UTC)から 17日の 19時(UTC)まで徐々に
南/南西の風 7kt

TAF: OMDB 161652Z 1618/1800 20008KT 8000 NSC BECMG 1706/1708 27013KT BECMG 1717/1719 20007KT

4,000以上の空港の気象観測と天気予報(METAR報とTAF報)

利用可能な観測所は地図上に黄色い丸と赤い丸で示す。

丸の上にカーソルを重ねると観測所名を参照できる。

次にクリックすると気象観測と天気予報を参照できる。

マップの切り替え:黒色「×」印の緑ボタンをクリックして拡大、「-」印の緑ボタンをクリックして縮小、緑色の三角印をクリックして隣りの地図に切り替え


METAR-TAF: